createdAt,value
2019-03-28T00:01:21.995Z,7.46
2019-03-28T00:06:16.085Z,7.59
2019-03-28T00:11:10.053Z,7.60
2019-03-28T00:16:04.151Z,7.58
2019-03-28T00:20:58.230Z,7.58
2019-03-28T00:25:52.235Z,7.59
2019-03-28T00:30:48.277Z,7.59
2019-03-28T00:35:42.240Z,7.56
2019-03-28T00:40:36.351Z,7.60
2019-03-28T00:45:31.213Z,7.63
2019-03-28T00:50:25.424Z,7.66
2019-03-28T00:55:19.520Z,7.77
2019-03-28T01:00:14.519Z,7.72
2019-03-28T01:05:08.765Z,7.79
2019-03-28T01:10:04.125Z,7.67
2019-03-28T01:14:58.182Z,7.74
2019-03-28T01:19:52.083Z,7.72
2019-03-28T01:24:46.058Z,7.67
2019-03-28T01:29:40.011Z,7.64
2019-03-28T01:34:33.952Z,7.59
2019-03-28T01:39:27.932Z,7.64
2019-03-28T01:44:22.030Z,7.62
2019-03-28T01:49:15.988Z,7.65
2019-03-28T01:54:10.022Z,7.65
2019-03-28T01:59:04.008Z,7.65
2019-03-28T02:03:57.968Z,7.66
2019-03-28T02:08:52.032Z,7.70
2019-03-28T02:13:46.102Z,7.72
2019-03-28T02:18:40.052Z,7.66
2019-03-28T02:23:34.039Z,7.62
2019-03-28T02:28:28.130Z,7.71
2019-03-28T02:33:22.129Z,7.74
2019-03-28T02:38:16.094Z,7.74
2019-03-28T02:43:10.310Z,7.77
2019-03-28T02:48:04.365Z,7.78
2019-03-28T02:52:58.330Z,7.78
2019-03-28T02:57:52.318Z,7.79
2019-03-28T03:02:46.260Z,7.81
2019-03-28T03:07:41.643Z,7.82
2019-03-28T03:12:35.878Z,7.82
2019-03-28T03:17:29.848Z,7.86
2019-03-28T03:22:23.835Z,7.86
2019-03-28T03:27:17.804Z,7.85
2019-03-28T03:32:11.767Z,7.93
2019-03-28T03:37:05.886Z,7.92
2019-03-28T03:41:59.829Z,7.90
2019-03-28T03:46:54.064Z,7.87
2019-03-28T03:51:48.059Z,7.93
2019-03-28T03:56:42.055Z,7.95
2019-03-28T04:01:36.039Z,7.92
2019-03-28T04:06:29.995Z,7.92
2019-03-28T04:11:23.973Z,7.92
2019-03-28T04:16:17.963Z,7.95
2019-03-28T04:21:12.057Z,7.94
2019-03-28T04:26:06.222Z,7.95
2019-03-28T04:31:00.446Z,7.98
2019-03-28T04:35:54.405Z,8.10
2019-03-28T04:40:48.463Z,8.00
2019-03-28T04:45:42.396Z,7.96
2019-03-28T04:50:36.374Z,8.08
2019-03-28T04:55:30.863Z,7.99
2019-03-28T05:00:24.823Z,7.99
2019-03-28T05:05:18.805Z,8.04
2019-03-28T05:10:12.956Z,8.05
2019-03-28T05:15:08.632Z,8.03
2019-03-28T05:20:04.415Z,7.99
2019-03-28T05:24:58.728Z,8.01
2019-03-28T05:29:52.883Z,8.02
2019-03-28T05:34:46.937Z,7.96
2019-03-28T05:39:41.175Z,7.97
2019-03-28T05:44:35.135Z,8.02
2019-03-28T05:49:29.301Z,8.03
2019-03-28T05:54:23.281Z,8.07
2019-03-28T05:59:17.445Z,8.07
2019-03-28T06:04:11.410Z,8.17
2019-03-28T06:09:05.993Z,8.19
2019-03-28T06:13:59.984Z,8.29
2019-03-28T06:18:53.957Z,8.25
2019-03-28T06:23:48.005Z,8.27
2019-03-28T06:28:41.975Z,8.29
2019-03-28T06:33:38.344Z,8.24
2019-03-28T06:38:31.806Z,8.34
2019-03-28T06:43:25.888Z,8.42
2019-03-28T06:48:19.858Z,8.53
2019-03-28T06:53:13.830Z,8.51
2019-03-28T06:58:07.829Z,8.53
2019-03-28T07:03:01.814Z,8.53
2019-03-28T07:07:55.918Z,8.59
2019-03-28T07:12:49.919Z,8.73
2019-03-28T07:17:43.894Z,8.86
2019-03-28T07:22:38.280Z,8.96
2019-03-28T07:27:32.950Z,9.01
2019-03-28T07:32:27.123Z,9.18
2019-03-28T07:37:21.117Z,9.18
2019-03-28T07:42:15.203Z,9.29
2019-03-28T07:47:09.251Z,9.66
2019-03-28T07:52:03.324Z,9.79
2019-03-28T07:56:57.583Z,9.84
2019-03-28T08:01:51.647Z,9.97
2019-03-28T08:06:49.934Z,10.19
2019-03-28T08:11:41.727Z,10.28
2019-03-28T08:16:35.810Z,10.55
2019-03-28T08:21:29.915Z,10.82
2019-03-28T08:26:23.891Z,11.00
2019-03-28T08:31:17.893Z,11.20
2019-03-28T08:36:13.144Z,11.33
2019-03-28T08:41:07.430Z,11.63
2019-03-28T08:46:01.853Z,11.67
2019-03-28T08:50:55.944Z,11.77
2019-03-28T08:55:50.019Z,11.83
2019-03-28T09:00:52.407Z,11.68
2019-03-28T09:05:40.083Z,11.74
2019-03-28T09:10:34.267Z,11.74
2019-03-28T09:15:28.234Z,11.79
2019-03-28T09:20:22.215Z,11.81
2019-03-28T09:25:16.194Z,11.90
2019-03-28T09:30:10.904Z,12.04
2019-03-28T09:35:05.527Z,12.22
2019-03-28T09:39:59.483Z,12.20
2019-03-28T09:44:53.456Z,12.23
2019-03-28T09:49:47.441Z,12.45
2019-03-28T09:54:41.520Z,12.60
2019-03-28T09:59:35.516Z,12.80
2019-03-28T10:04:29.573Z,12.91
2019-03-28T10:09:23.642Z,13.19
2019-03-28T10:14:17.598Z,13.50
2019-03-28T10:19:11.890Z,13.85
2019-03-28T10:24:06.484Z,14.18
2019-03-28T10:29:00.567Z,14.00
2019-03-28T10:33:55.036Z,14.06
2019-03-28T10:38:49.008Z,14.17
2019-03-28T10:43:42.976Z,14.21
2019-03-28T10:48:36.974Z,13.93
2019-03-28T10:53:30.949Z,14.10
2019-03-28T10:58:25.093Z,14.48
2019-03-28T11:03:19.094Z,15.18
2019-03-28T11:08:13.065Z,15.71
2019-03-28T11:13:09.610Z,15.86
2019-03-28T11:18:03.156Z,15.99
2019-03-28T11:22:57.123Z,16.66
2019-03-28T11:27:51.120Z,17.04
2019-03-28T11:32:45.199Z,16.99
2019-03-28T11:37:39.332Z,18.36
2019-03-28T11:42:33.308Z,19.40
2019-03-28T11:47:27.333Z,20.25
2019-03-28T11:52:21.415Z,20.27
2019-03-28T11:57:15.963Z,20.64
2019-03-28T12:02:19.554Z,20.82
2019-03-28T12:07:06.209Z,19.67
2019-03-28T12:12:00.200Z,18.78
2019-03-28T12:16:54.359Z,18.61
2019-03-28T12:21:48.553Z,19.40
2019-03-28T12:26:42.532Z,20.14
2019-03-28T12:31:36.605Z,20.19
2019-03-28T12:36:30.711Z,21.23
2019-03-28T12:41:24.705Z,22.30
2019-03-28T12:46:18.683Z,21.74
2019-03-28T12:51:12.764Z,21.78
2019-03-28T12:56:07.030Z,22.14
2019-03-28T13:01:01.020Z,21.17
2019-03-28T13:05:55.120Z,21.54
2019-03-28T13:10:49.200Z,23.87
2019-03-28T13:15:43.137Z,22.79
2019-03-28T13:20:37.239Z,22.15
2019-03-28T13:25:31.417Z,21.58
2019-03-28T13:30:25.656Z,20.93
2019-03-28T13:35:19.634Z,20.03
2019-03-28T13:40:13.710Z,19.18
2019-03-28T13:45:09.020Z,18.55
2019-03-28T13:50:08.150Z,17.72
2019-03-28T13:55:03.916Z,17.66
2019-03-28T13:59:58.097Z,17.39
2019-03-28T14:04:52.546Z,16.78
2019-03-28T14:09:46.620Z,16.73
2019-03-28T14:14:40.616Z,16.73
2019-03-28T14:19:34.642Z,16.52
2019-03-28T14:24:28.602Z,16.23
2019-03-28T14:29:22.565Z,15.81
2019-03-28T14:34:16.527Z,15.35
2019-03-28T14:39:10.544Z,15.59
2019-03-28T14:44:04.514Z,15.72
2019-03-28T14:48:58.575Z,15.75
2019-03-28T14:53:52.511Z,15.64
2019-03-28T14:58:48.244Z,15.80
2019-03-28T15:03:42.250Z,15.48
2019-03-28T15:08:36.236Z,15.51
2019-03-28T15:13:30.364Z,15.56
2019-03-28T15:18:24.372Z,15.50
2019-03-28T15:23:18.453Z,15.67
2019-03-28T15:28:12.448Z,15.52
2019-03-28T15:33:06.459Z,15.32
2019-03-28T15:38:00.549Z,15.29
2019-03-28T15:42:54.524Z,15.19
2019-03-28T15:47:51.837Z,15.06
2019-03-28T15:52:44.533Z,15.04
2019-03-28T15:57:40.796Z,14.90
2019-03-28T16:02:34.556Z,14.85
2019-03-28T16:07:29.578Z,14.70
2019-03-28T16:12:23.750Z,14.45
2019-03-28T16:17:17.861Z,14.44
2019-03-28T16:22:12.014Z,14.33
2019-03-28T16:27:06.138Z,14.20
2019-03-28T16:32:00.252Z,14.17
2019-03-28T16:36:54.253Z,14.12
2019-03-28T16:41:48.373Z,14.09
2019-03-28T16:46:42.434Z,14.05
2019-03-28T16:51:36.440Z,13.89
2019-03-28T16:56:30.565Z,13.75
2019-03-28T17:01:24.576Z,13.70
2019-03-28T17:06:19.179Z,13.70
2019-03-28T17:11:13.203Z,13.64
2019-03-28T17:16:07.317Z,13.50
2019-03-28T17:21:01.500Z,13.23
2019-03-28T17:25:55.727Z,13.04
2019-03-28T17:30:49.835Z,12.99
2019-03-28T17:35:43.930Z,12.92
2019-03-28T17:40:37.912Z,12.86
2019-03-28T17:45:31.899Z,12.74
2019-03-28T17:50:25.935Z,12.70
2019-03-28T17:55:20.002Z,12.63
2019-03-28T18:00:14.214Z,12.58
2019-03-28T18:05:10.847Z,12.48
2019-03-28T18:10:05.192Z,12.39
2019-03-28T18:14:59.328Z,12.30
2019-03-28T18:19:53.539Z,12.21
2019-03-28T18:24:47.552Z,12.15
2019-03-28T18:29:41.634Z,12.13
2019-03-28T18:34:35.744Z,12.08
2019-03-28T18:39:29.817Z,12.03
2019-03-28T18:44:23.833Z,11.98
2019-03-28T18:49:17.931Z,11.92
2019-03-28T18:54:12.019Z,11.81
2019-03-28T18:59:06.409Z,11.76
2019-03-28T19:04:00.417Z,11.74
2019-03-28T19:08:54.590Z,11.70
2019-03-28T19:13:48.584Z,11.61
2019-03-28T19:18:42.725Z,11.54
2019-03-28T19:23:37.253Z,11.53
2019-03-28T19:28:31.310Z,11.48
2019-03-28T19:33:25.310Z,11.44
2019-03-28T19:38:19.429Z,11.35
2019-03-28T19:43:20.392Z,11.25
2019-03-28T19:48:09.426Z,11.05
2019-03-28T19:53:03.602Z,10.83
2019-03-28T19:57:57.721Z,10.65
2019-03-28T20:02:51.763Z,10.35
2019-03-28T20:07:46.031Z,10.08
2019-03-28T20:12:40.103Z,9.89
2019-03-28T20:17:34.298Z,9.67
2019-03-28T20:22:28.298Z,9.46
2019-03-28T20:27:23.074Z,9.26
2019-03-28T20:32:17.448Z,9.09
2019-03-28T20:37:11.735Z,8.98
2019-03-28T20:42:06.162Z,8.78
2019-03-28T20:47:00.211Z,8.60
2019-03-28T20:51:54.310Z,8.50
2019-03-28T20:56:48.568Z,8.38
2019-03-28T21:01:42.744Z,8.29
2019-03-28T21:06:36.935Z,8.11
2019-03-28T21:11:30.902Z,7.96
2019-03-28T21:16:25.037Z,7.87
2019-03-28T21:21:19.064Z,7.76
2019-03-28T21:26:13.158Z,7.70
2019-03-28T21:31:07.281Z,7.57
2019-03-28T21:36:01.394Z,7.47
2019-03-28T21:40:55.567Z,7.36
2019-03-28T21:45:49.681Z,7.28
2019-03-28T21:50:43.674Z,7.19
2019-03-28T21:55:37.770Z,7.10
2019-03-28T22:00:32.080Z,7.02
2019-03-28T22:05:28.624Z,6.99
2019-03-28T22:10:22.107Z,6.92
2019-03-28T22:15:16.234Z,6.79
2019-03-28T22:20:10.350Z,6.71
2019-03-28T22:25:05.591Z,6.64
2019-03-28T22:29:59.721Z,6.56
2019-03-28T22:34:53.769Z,6.48
2019-03-28T22:39:49.803Z,6.41
2019-03-28T22:44:43.922Z,6.33
2019-03-28T22:49:37.908Z,6.33
2019-03-28T22:54:31.981Z,6.30
2019-03-28T22:59:26.918Z,6.26
2019-03-28T23:04:21.273Z,6.21
2019-03-28T23:09:15.370Z,6.18
2019-03-28T23:14:09.362Z,6.08
2019-03-28T23:19:03.352Z,6.04
2019-03-28T23:23:57.437Z,5.97
2019-03-28T23:28:51.499Z,5.92
2019-03-28T23:33:45.484Z,5.82
2019-03-28T23:38:39.434Z,5.77
2019-03-28T23:43:33.645Z,5.72
2019-03-28T23:48:27.684Z,5.67
2019-03-28T23:53:21.652Z,5.62
2019-03-28T23:58:15.733Z,5.77
